sensor_id;sensor_type;location;lat;lon;timestamp;pressure;altitude;pressure_sealevel;temperature;humidity
19890;BME280;10107;51.198;6.824;2022-09-20T00:02:24;-21606.63;;;10.97;100.00
19890;BME280;10107;51.198;6.824;2022-09-20T00:06:30;-21607.69;;;11.01;100.00
19890;BME280;10107;51.198;6.824;2022-09-20T00:10:32;-21608.88;;;11.05;100.00
19890;BME280;10107;51.198;6.824;2022-09-20T00:14:39;-21609.53;;;11.08;100.00
19890;BME280;10107;51.198;6.824;2022-09-20T00:18:49;-21610.59;;;11.12;100.00
19890;BME280;10107;51.198;6.824;2022-09-20T00:22:53;-21611.25;;;11.15;100.00
19890;BME280;10107;51.198;6.824;2022-09-20T00:26:55;-21611.13;;;11.14;100.00
19890;BME280;10107;51.198;6.824;2022-09-20T00:30:57;-21611.25;;;11.15;100.00
19890;BME280;10107;51.198;6.824;2022-09-20T00:35:02;-21611.53;;;11.16;100.00
19890;BME280;10107;51.198;6.824;2022-09-20T00:39:13;-21611.66;;;11.16;100.00
19890;BME280;10107;51.198;6.824;2022-09-20T00:43:15;-21612.19;;;11.18;100.00
19890;BME280;10107;51.198;6.824;2022-09-20T00:47:27;-21612.97;;;11.21;100.00
19890;BME280;10107;51.198;6.824;2022-09-20T00:51:35;-21613.66;;;11.24;100.00
19890;BME280;10107;51.198;6.824;2022-09-20T00:55:42;-21613.66;;;11.24;100.00
19890;BME280;10107;51.198;6.824;2022-09-20T00:59:47;-21613.78;;;11.24;100.00
19890;BME280;10107;51.198;6.824;2022-09-20T01:03:52;-21614.19;;;11.26;100.00
19890;BME280;10107;51.198;6.824;2022-09-20T01:07:55;-21614.44;;;11.27;100.00
19890;BME280;10107;51.198;6.824;2022-09-20T01:12:02;-21614.84;;;11.28;100.00
19890;BME280;10107;51.198;6.824;2022-09-20T01:16:07;-21615.38;;;11.30;100.00
19890;BME280;10107;51.198;6.824;2022-09-20T01:20:17;-21615.63;;;11.32;100.00
19890;BME280;10107;51.198;6.824;2022-09-20T01:24:25;-21615.91;;;11.33;100.00
19890;BME280;10107;51.198;6.824;2022-09-20T01:28:29;-21616.44;;;11.35;100.00
19890;BME280;10107;51.198;6.824;2022-09-20T01:32:34;-21616.69;;;11.36;100.00
19890;BME280;10107;51.198;6.824;2022-09-20T01:36:44;-21616.69;;;11.36;100.00
19890;BME280;10107;51.198;6.824;2022-09-20T01:40:57;-21617.22;;;11.38;100.00
19890;BME280;10107;51.198;6.824;2022-09-20T01:45:10;-21617.22;;;11.38;100.00
19890;BME280;10107;51.198;6.824;2022-09-20T01:49:24;-21616.81;;;11.36;100.00
19890;BME280;10107;51.198;6.824;2022-09-20T01:53:52;-21616.56;;;11.35;100.00
19890;BME280;10107;51.198;6.824;2022-09-20T01:58:32;-21616.69;;;11.36;100.00
19890;BME280;10107;51.198;6.824;2022-09-20T02:02:58;-21617.63;;;11.39;100.00
19890;BME280;10107;51.198;6.824;2022-09-20T02:07:25;-21618.53;;;11.43;100.00
19890;BME280;10107;51.198;6.824;2022-09-20T02:11:43;-21618.53;;;11.43;100.00
19890;BME280;10107;51.198;6.824;2022-09-20T02:16:08;-21618.94;;;11.44;100.00
19890;BME280;10107;51.198;6.824;2022-09-20T02:20:28;-21618.00;;;11.41;100.00
19890;BME280;10107;51.198;6.824;2022-09-20T02:24:38;-21618.00;;;11.41;100.00
19890;BME280;10107;51.198;6.824;2022-09-20T02:28:53;-21618.16;;;11.41;100.00
19890;BME280;10107;51.198;6.824;2022-09-20T02:33:09;-21618.00;;;11.41;100.00
19890;BME280;10107;51.198;6.824;2022-09-20T02:37:33;-21617.34;;;11.38;100.00
19890;BME280;10107;51.198;6.824;2022-09-20T02:41:53;-21617.47;;;11.39;100.00
19890;BME280;10107;51.198;6.824;2022-09-20T02:46:02;-21617.34;;;11.38;100.00
19890;BME280;10107;51.198;6.824;2022-09-20T02:50:22;-21616.94;;;11.37;100.00
19890;BME280;10107;51.198;6.824;2022-09-20T02:54:36;-21616.56;;;11.35;100.00
19890;BME280;10107;51.198;6.824;2022-09-20T02:58:50;-21615.91;;;11.33;100.00
19890;BME280;10107;51.198;6.824;2022-09-20T03:03:05;-21615.91;;;11.33;100.00
19890;BME280;10107;51.198;6.824;2022-09-20T03:07:14;-21615.63;;;11.32;100.00
19890;BME280;10107;51.198;6.824;2022-09-20T03:11:28;-21615.91;;;11.33;100.00
19890;BME280;10107;51.198;6.824;2022-09-20T03:15:37;-21615.91;;;11.33;100.00
19890;BME280;10107;51.198;6.824;2022-09-20T03:19:53;-21616.03;;;11.33;100.00
19890;BME280;10107;51.198;6.824;2022-09-20T03:24:05;-21615.09;;;11.29;100.00
19890;BME280;10107;51.198;6.824;2022-09-20T03:28:25;-21614.97;;;11.29;100.00
19890;BME280;10107;51.198;6.824;2022-09-20T03:32:45;-21614.56;;;11.27;100.00
19890;BME280;10107;51.198;6.824;2022-09-20T03:37:05;-21613.78;;;11.24;100.00
19890;BME280;10107;51.198;6.824;2022-09-20T03:41:47;-21612.97;;;11.21;100.00
19890;BME280;10107;51.198;6.824;2022-09-20T03:46:04;-21612.84;;;11.21;100.00
19890;BME280;10107;51.198;6.824;2022-09-20T03:50:44;-21612.72;;;11.20;100.00
19890;BME280;10107;51.198;6.824;2022-09-20T03:55:06;-21612.84;;;11.21;100.00
19890;BME280;10107;51.198;6.824;2022-09-20T03:59:25;-21612.59;;;11.20;100.00
19890;BME280;10107;51.198;6.824;2022-09-20T04:03:44;-21612.31;;;11.19;100.00
19890;BME280;10107;51.198;6.824;2022-09-20T04:07:58;-21612.06;;;11.18;100.00
19890;BME280;10107;51.198;6.824;2022-09-20T04:12:11;-21611.94;;;11.17;100.00
19890;BME280;10107;51.198;6.824;2022-09-20T04:16:26;-21611.94;;;11.17;100.00
19890;BME280;10107;51.198;6.824;2022-09-20T04:20:38;-21611.94;;;11.17;100.00
19890;BME280;10107;51.198;6.824;2022-09-20T04:24:48;-21611.94;;;11.17;100.00
19890;BME280;10107;51.198;6.824;2022-09-20T04:29:01;-21612.06;;;11.18;100.00
19890;BME280;10107;51.198;6.824;2022-09-20T04:33:17;-21612.31;;;11.19;100.00
19890;BME280;10107;51.198;6.824;2022-09-20T04:37:26;-21612.19;;;11.18;100.00
19890;BME280;10107;51.198;6.824;2022-09-20T04:46:35;-21612.31;;;11.19;100.00
19890;BME280;10107;51.198;6.824;2022-09-20T04:55:48;-21611.53;;;11.16;100.00
19890;BME280;10107;51.198;6.824;2022-09-20T05:00:02;-21610.47;;;11.12;100.00
19890;BME280;10107;51.198;6.824;2022-09-20T05:04:35;-21611.41;;;11.15;100.00
19890;BME280;10107;51.198;6.824;2022-09-20T05:08:55;-21611.13;;;11.14;100.00
19890;BME280;10107;51.198;6.824;2022-09-20T05:13:13;-21611.53;;;11.16;100.00
19890;BME280;10107;51.198;6.824;2022-09-20T05:17:23;-21612.06;;;11.18;100.00
19890;BME280;10107;51.198;6.824;2022-09-20T05:21:42;-21612.44;;;11.19;100.00
19890;BME280;10107;51.198;6.824;2022-09-20T05:26:08;-21612.97;;;11.21;100.00
19890;BME280;10107;51.198;6.824;2022-09-20T05:30:28;-21613.38;;;11.23;100.00
19890;BME280;10107;51.198;6.824;2022-09-20T05:34:38;-21614.19;;;11.26;100.00
19890;BME280;10107;51.198;6.824;2022-09-20T05:38:47;-21614.56;;;11.27;100.00
19890;BME280;10107;51.198;6.824;2022-09-20T05:42:54;-21615.63;;;11.32;100.00
19890;BME280;10107;51.198;6.824;2022-09-20T05:47:11;-21616.56;;;11.35;100.00
19890;BME280;10107;51.198;6.824;2022-09-20T05:51:33;-21617.22;;;11.38;100.00
19890;BME280;10107;51.198;6.824;2022-09-20T05:55:48;-21618.81;;;11.44;100.00
19890;BME280;10107;51.198;6.824;2022-09-20T06:00:00;-21620.66;;;11.51;100.00
19890;BME280;10107;51.198;6.824;2022-09-20T06:04:16;-21622.78;;;11.59;100.00
19890;BME280;10107;51.198;6.824;2022-09-20T06:08:37;-21625.56;;;11.70;100.00
19890;BME280;10107;51.198;6.824;2022-09-20T06:12:51;-21628.72;;;11.82;99.45
19890;BME280;10107;51.198;6.824;2022-09-20T06:17:03;-21632.56;;;11.97;98.61
19890;BME280;10107;51.198;6.824;2022-09-20T06:21:18;-21637.06;;;12.15;97.58
19890;BME280;10107;51.198;6.824;2022-09-20T06:25:27;-21642.47;;;12.36;96.43
19890;BME280;10107;51.198;6.824;2022-09-20T06:29:33;-21649.34;;;12.62;94.41
19890;BME280;10107;51.198;6.824;2022-09-20T06:33:39;-21656.47;;;12.90;91.78
19890;BME280;10107;51.198;6.824;2022-09-20T06:37:49;-21665.69;;;13.26;89.62
19890;BME280;10107;51.198;6.824;2022-09-20T06:42:21;-21682.03;;;13.90;87.14
19890;BME280;10107;51.198;6.824;2022-09-20T06:46:24;-21691.91;;;14.28;83.62
19890;BME280;10107;51.198;6.824;2022-09-20T06:50:28;-21696.13;;;14.44;82.21
19890;BME280;10107;51.198;6.824;2022-09-20T06:54:32;-21696.41;;;14.45;81.37
19890;BME280;10107;51.198;6.824;2022-09-20T06:58:34;-21695.75;;;14.43;80.45
19890;BME280;10107;51.198;6.824;2022-09-20T07:02:36;-21699.03;;;14.56;79.90
19890;BME280;10107;51.198;6.824;2022-09-20T07:06:38;-21694.69;;;14.39;80.47
19890;BME280;10107;51.198;6.824;2022-09-20T07:10:41;-21704.03;;;14.75;79.88
19890;BME280;10107;51.198;6.824;2022-09-20T07:14:43;-21828.38;;;19.62;62.79
19890;BME280;10107;51.198;6.824;2022-09-20T07:18:45;-21979.16;;;25.58;43.58
19890;BME280;10107;51.198;6.824;2022-09-20T07:22:47;-22070.84;;;29.24;33.93
19890;BME280;10107;51.198;6.824;2022-09-20T07:26:55;-22025.53;;;27.43;35.59
19890;BME280;10107;51.198;6.824;2022-09-20T07:30:57;-21958.63;;;24.77;39.81
19890;BME280;10107;51.198;6.824;2022-09-20T07:34:59;-21911.63;;;22.90;45.13
19890;BME280;10107;51.198;6.824;2022-09-20T07:39:02;-21884.91;;;21.85;46.85
19890;BME280;10107;51.198;6.824;2022-09-20T07:43:05;-21997.84;;;26.33;39.23
19890;BME280;10107;51.198;6.824;2022-09-20T07:47:08;-22127.44;;;31.51;30.44
19890;BME280;10107;51.198;6.824;2022-09-20T07:51:12;-22200.38;;;34.46;24.99
19890;BME280;10107;51.198;6.824;2022-09-20T07:55:13;-22189.13;;;34.00;24.83
19890;BME280;10107;51.198;6.824;2022-09-20T07:59:16;-22090.28;;;30.02;29.60
19890;BME280;10107;51.198;6.824;2022-09-20T08:03:18;-22017.16;;;27.10;34.06
19890;BME280;10107;51.198;6.824;2022-09-20T08:07:20;-21965.22;;;25.03;37.94
19890;BME280;10107;51.198;6.824;2022-09-20T08:11:23;-21935.09;;;23.83;40.29
19890;BME280;10107;51.198;6.824;2022-09-20T08:15:26;-21904.25;;;22.61;42.30
19890;BME280;10107;51.198;6.824;2022-09-20T08:19:28;-21886.06;;;21.89;44.08
19890;BME280;10107;51.198;6.824;2022-09-20T08:23:32;-21868.38;;;21.20;45.09
19890;BME280;10107;51.198;6.824;2022-09-20T08:27:34;-21873.31;;;21.39;46.38
19890;BME280;10107;51.198;6.824;2022-09-20T08:31:39;-21881.38;;;21.71;46.22
19890;BME280;10107;51.198;6.824;2022-09-20T08:35:41;-21844.69;;;20.26;49.12
19890;BME280;10107;51.198;6.824;2022-09-20T08:39:43;-21808.41;;;18.84;51.43
19890;BME280;10107;51.198;6.824;2022-09-20T08:43:47;-21797.56;;;18.41;53.94
19890;BME280;10107;51.198;6.824;2022-09-20T08:47:54;-21784.34;;;17.89;55.74
19890;BME280;10107;51.198;6.824;2022-09-20T08:51:57;-21771.25;;;17.38;57.25
19890;BME280;10107;51.198;6.824;2022-09-20T08:55:59;-21769.41;;;17.31;57.53
19890;BME280;10107;51.198;6.824;2022-09-20T09:00:04;-21846.13;;;20.32;50.66
19890;BME280;10107;51.198;6.824;2022-09-20T09:04:12;-21910.34;;;22.85;43.91
19890;BME280;10107;51.198;6.824;2022-09-20T09:08:16;-21894.25;;;22.22;43.47
19890;BME280;10107;51.198;6.824;2022-09-20T09:12:22;-21892.03;;;22.13;42.79
19890;BME280;10107;51.198;6.824;2022-09-20T09:16:27;-21890.47;;;22.07;43.00
19890;BME280;10107;51.198;6.824;2022-09-20T09:20:39;-21898.78;;;22.40;40.80
19890;BME280;10107;51.198;6.824;2022-09-20T09:24:41;-21850.81;;;20.50;45.37
19890;BME280;10107;51.198;6.824;2022-09-20T09:28:43;-21810.09;;;18.90;49.84
19890;BME280;10107;51.198;6.824;2022-09-20T09:32:45;-21801.88;;;18.58;53.00
19890;BME280;10107;51.198;6.824;2022-09-20T09:36:48;-21913.06;;;22.96;42.18
19890;BME280;10107;51.198;6.824;2022-09-20T09:40:51;-21984.72;;;25.80;35.45
19890;BME280;10107;51.198;6.824;2022-09-20T09:45:09;-21946.22;;;24.27;36.74
19890;BME280;10107;51.198;6.824;2022-09-20T09:49:13;-21891.13;;;22.09;39.36
19890;BME280;10107;51.198;6.824;2022-09-20T09:53:20;-21870.47;;;21.28;42.75
19890;BME280;10107;51.198;6.824;2022-09-20T09:57:31;-21896.97;;;22.32;37.50
19890;BME280;10107;51.198;6.824;2022-09-20T10:01:45;-21911.25;;;22.89;38.14
19890;BME280;10107;51.198;6.824;2022-09-20T10:06:00;-21889.97;;;22.05;38.86
19890;BME280;10107;51.198;6.824;2022-09-20T10:10:16;-21891.25;;;22.10;39.07
19890;BME280;10107;51.198;6.824;2022-09-20T10:14:30;-21881.13;;;21.70;39.25
19890;BME280;10107;51.198;6.824;2022-09-20T10:18:43;-21843.63;;;20.22;41.04
19890;BME280;10107;51.198;6.824;2022-09-20T10:22:55;-21808.41;;;18.84;44.61
19890;BME280;10107;51.198;6.824;2022-09-20T10:27:13;-21781.47;;;17.78;49.32
19890;BME280;10107;51.198;6.824;2022-09-20T10:31:27;-21756.56;;;16.80;53.45
19890;BME280;10107;51.198;6.824;2022-09-20T10:35:48;-21745.94;;;16.39;55.89
19890;BME280;10107;51.198;6.824;2022-09-20T10:40:00;-21741.50;;;16.21;56.64
19890;BME280;10107;51.198;6.824;2022-09-20T10:44:26;-21742.53;;;16.26;53.36
19890;BME280;10107;51.198;6.824;2022-09-20T10:48:36;-21745.16;;;16.36;54.91
19890;BME280;10107;51.198;6.824;2022-09-20T10:53:00;-21744.63;;;16.34;58.63
19890;BME280;10107;51.198;6.824;2022-09-20T10:57:20;-21748.06;;;16.47;59.77
19890;BME280;10107;51.198;6.824;2022-09-20T11:01:41;-21756.56;;;16.80;57.93
19890;BME280;10107;51.198;6.824;2022-09-20T11:05:56;-21768.09;;;17.26;56.86
19890;BME280;10107;51.198;6.824;2022-09-20T11:10:11;-21780.16;;;17.73;56.00
19890;BME280;10107;51.198;6.824;2022-09-20T11:14:18;-21788.00;;;18.04;55.28
19890;BME280;10107;51.198;6.824;2022-09-20T11:18:24;-21796.91;;;18.38;53.73
19890;BME280;10107;51.198;6.824;2022-09-20T11:22:34;-21803.19;;;18.63;53.46
19890;BME280;10107;51.198;6.824;2022-09-20T11:26:43;-21803.56;;;18.65;51.19
19890;BME280;10107;51.198;6.824;2022-09-20T11:30:52;-21808.28;;;18.83;50.42
19890;BME280;10107;51.198;6.824;2022-09-20T11:35:00;-21819.78;;;19.28;48.14
19890;BME280;10107;51.198;6.824;2022-09-20T11:39:07;-21878.78;;;21.61;45.76
19890;BME280;10107;51.198;6.824;2022-09-20T11:43:14;-21946.34;;;24.28;39.16
19890;BME280;10107;51.198;6.824;2022-09-20T11:47:21;-21973.09;;;25.34;36.23
19890;BME280;10107;51.198;6.824;2022-09-20T11:56:09;-21984.56;;;25.80;34.39
19890;BME280;10107;51.198;6.824;2022-09-20T12:00:15;-21953.47;;;24.56;34.92
19890;BME280;10107;51.198;6.824;2022-09-20T12:04:29;-21922.13;;;23.32;37.57
19890;BME280;10107;51.198;6.824;2022-09-20T12:08:34;-21911.75;;;22.91;37.20
19890;BME280;10107;51.198;6.824;2022-09-20T12:12:38;-21951.00;;;24.46;35.02
19890;BME280;10107;51.198;6.824;2022-09-20T12:16:43;-21988.84;;;25.97;32.60
19890;BME280;10107;51.198;6.824;2022-09-20T12:20:58;-21931.97;;;23.71;35.84
19890;BME280;10107;51.198;6.824;2022-09-20T12:25:35;-21865.66;;;21.09;41.83
19890;BME280;10107;51.198;6.824;2022-09-20T12:30:01;-21826.56;;;19.55;46.30
19890;BME280;10107;51.198;6.824;2022-09-20T12:34:34;-21801.75;;;18.57;48.67
19890;BME280;10107;51.198;6.824;2022-09-20T12:38:58;-21774.00;;;17.49;51.11
19890;BME280;10107;51.198;6.824;2022-09-20T12:43:01;-21763.00;;;17.06;53.43
19890;BME280;10107;51.198;6.824;2022-09-20T12:47:05;-21755.00;;;16.74;56.16
19890;BME280;10107;51.198;6.824;2022-09-20T12:51:18;-21756.31;;;16.79;59.35
19890;BME280;10107;51.198;6.824;2022-09-20T12:55:42;-21781.19;;;17.77;58.65
19890;BME280;10107;51.198;6.824;2022-09-20T12:59:53;-21829.69;;;19.67;51.54
19890;BME280;10107;51.198;6.824;2022-09-20T13:08:41;-21852.09;;;20.55;48.16
19890;BME280;10107;51.198;6.824;2022-09-20T13:12:44;-21843.25;;;20.21;48.93
19890;BME280;10107;51.198;6.824;2022-09-20T13:16:51;-21841.69;;;20.14;47.97
19890;BME280;10107;51.198;6.824;2022-09-20T13:20:55;-21838.28;;;20.01;48.44
19890;BME280;10107;51.198;6.824;2022-09-20T13:25:05;-21836.88;;;19.95;48.60
19890;BME280;10107;51.198;6.824;2022-09-20T13:29:08;-21840.25;;;20.09;48.93
19890;BME280;10107;51.198;6.824;2022-09-20T13:33:21;-21847.53;;;20.37;47.65
19890;BME280;10107;51.198;6.824;2022-09-20T13:37:23;-21839.34;;;20.05;47.98
19890;BME280;10107;51.198;6.824;2022-09-20T13:41:29;-21832.94;;;19.80;48.47
19890;BME280;10107;51.198;6.824;2022-09-20T13:45:32;-21829.81;;;19.68;49.13
19890;BME280;10107;51.198;6.824;2022-09-20T13:49:34;-21822.50;;;19.39;50.48
19890;BME280;10107;51.198;6.824;2022-09-20T13:53:43;-21824.34;;;19.46;50.37
19890;BME280;10107;51.198;6.824;2022-09-20T13:57:47;-21824.19;;;19.46;50.72
19890;BME280;10107;51.198;6.824;2022-09-20T14:01:50;-21819.63;;;19.28;50.20
19890;BME280;10107;51.198;6.824;2022-09-20T14:05:55;-21814.81;;;19.09;51.19
19890;BME280;10107;51.198;6.824;2022-09-20T14:09:57;-21813.09;;;19.02;50.95
19890;BME280;10107;51.198;6.824;2022-09-20T14:14:02;-21805.28;;;18.71;51.16
19890;BME280;10107;51.198;6.824;2022-09-20T14:18:06;-21795.47;;;18.33;51.84
19890;BME280;10107;51.198;6.824;2022-09-20T14:22:16;-21788.00;;;18.04;52.50
19890;BME280;10107;51.198;6.824;2022-09-20T14:26:22;-21781.97;;;17.80;53.06
19890;BME280;10107;51.198;6.824;2022-09-20T14:30:31;-21782.13;;;17.80;52.08
19890;BME280;10107;51.198;6.824;2022-09-20T14:34:35;-21779.09;;;17.69;52.75
19890;BME280;10107;51.198;6.824;2022-09-20T14:38:37;-21781.19;;;17.77;52.11
19890;BME280;10107;51.198;6.824;2022-09-20T14:42:41;-21782.13;;;17.80;51.71
19890;BME280;10107;51.198;6.824;2022-09-20T14:46:44;-21785.66;;;17.94;50.12
19890;BME280;10107;51.198;6.824;2022-09-20T14:51:07;-21790.63;;;18.14;49.62
19890;BME280;10107;51.198;6.824;2022-09-20T14:55:19;-21792.97;;;18.23;49.14
19890;BME280;10107;51.198;6.824;2022-09-20T14:59:34;-21788.94;;;18.07;49.07
19890;BME280;10107;51.198;6.824;2022-09-20T15:03:38;-21786.56;;;17.98;48.09
19890;BME280;10107;51.198;6.824;2022-09-20T15:07:40;-21787.63;;;18.02;48.25
19890;BME280;10107;51.198;6.824;2022-09-20T15:11:43;-21788.94;;;18.07;47.18
19890;BME280;10107;51.198;6.824;2022-09-20T15:15:48;-21790.25;;;18.12;46.29
19890;BME280;10107;51.198;6.824;2022-09-20T15:19:50;-21794.28;;;18.28;45.44
19890;BME280;10107;51.198;6.824;2022-09-20T15:23:53;-21796.50;;;18.37;44.95
19890;BME280;10107;51.198;6.824;2022-09-20T15:27:56;-21797.28;;;18.40;46.02
19890;BME280;10107;51.198;6.824;2022-09-20T15:31:58;-21791.69;;;18.18;44.76
19890;BME280;10107;51.198;6.824;2022-09-20T15:36:01;-21788.00;;;18.04;46.03
19890;BME280;10107;51.198;6.824;2022-09-20T15:40:04;-21783.94;;;17.88;45.61
19890;BME280;10107;51.198;6.824;2022-09-20T15:44:08;-21781.06;;;17.76;46.56
19890;BME280;10107;51.198;6.824;2022-09-20T15:48:10;-21777.00;;;17.60;47.47
19890;BME280;10107;51.198;6.824;2022-09-20T15:52:13;-21773.88;;;17.48;47.02
19890;BME280;10107;51.198;6.824;2022-09-20T15:56:16;-21768.09;;;17.26;48.29
19890;BME280;10107;51.198;6.824;2022-09-20T16:00:20;-21763.53;;;17.08;49.28
19890;BME280;10107;51.198;6.824;2022-09-20T16:04:21;-21757.09;;;16.82;50.39
19890;BME280;10107;51.198;6.824;2022-09-20T16:08:23;-21756.06;;;16.78;51.62
19890;BME280;10107;51.198;6.824;2022-09-20T16:12:25;-21752.13;;;16.63;52.36
19890;BME280;10107;51.198;6.824;2022-09-20T16:16:29;-21748.31;;;16.48;52.17
19890;BME280;10107;51.198;6.824;2022-09-20T16:20:31;-21747.13;;;16.43;53.06
19890;BME280;10107;51.198;6.824;2022-09-20T16:24:34;-21744.25;;;16.32;53.61
19890;BME280;10107;51.198;6.824;2022-09-20T16:28:36;-21741.63;;;16.22;53.71
19890;BME280;10107;51.198;6.824;2022-09-20T16:32:39;-21741.50;;;16.21;53.51
19890;BME280;10107;51.198;6.824;2022-09-20T16:36:42;-21741.88;;;16.23;53.78
19890;BME280;10107;51.198;6.824;2022-09-20T16:40:47;-21741.50;;;16.21;53.35
19890;BME280;10107;51.198;6.824;2022-09-20T16:44:50;-21739.78;;;16.15;53.96
19890;BME280;10107;51.198;6.824;2022-09-20T16:48:55;-21735.97;;;16.00;53.83
19890;BME280;10107;51.198;6.824;2022-09-20T16:53:00;-21734.94;;;15.96;54.60
19890;BME280;10107;51.198;6.824;2022-09-20T16:57:02;-21732.16;;;15.85;54.75
19890;BME280;10107;51.198;6.824;2022-09-20T17:01:05;-21730.34;;;15.78;55.63
19890;BME280;10107;51.198;6.824;2022-09-20T17:05:09;-21729.28;;;15.74;55.66
19890;BME280;10107;51.198;6.824;2022-09-20T17:09:12;-21728.09;;;15.69;56.87
19890;BME280;10107;51.198;6.824;2022-09-20T17:13:14;-21725.59;;;15.59;56.96
19890;BME280;10107;51.198;6.824;2022-09-20T17:17:15;-21722.56;;;15.48;57.46
19890;BME280;10107;51.198;6.824;2022-09-20T17:21:23;-21719.56;;;15.36;57.68
19890;BME280;10107;51.198;6.824;2022-09-20T17:25:25;-21716.66;;;15.24;59.09
19890;BME280;10107;51.198;6.824;2022-09-20T17:29:29;-21714.69;;;15.17;60.03
19890;BME280;10107;51.198;6.824;2022-09-20T17:33:36;-21711.28;;;15.03;60.42
19890;BME280;10107;51.198;6.824;2022-09-20T17:37:39;-21707.47;;;14.89;62.24
19890;BME280;10107;51.198;6.824;2022-09-20T17:41:43;-21705.34;;;14.80;63.30
19890;BME280;10107;51.198;6.824;2022-09-20T17:45:47;-21702.06;;;14.68;63.39
19890;BME280;10107;51.198;6.824;2022-09-20T17:49:51;-21700.63;;;14.62;63.65
19890;BME280;10107;51.198;6.824;2022-09-20T17:53:55;-21699.44;;;14.57;63.96
19890;BME280;10107;51.198;6.824;2022-09-20T17:58:05;-21697.97;;;14.52;64.27
19890;BME280;10107;51.198;6.824;2022-09-20T18:02:07;-21697.19;;;14.49;65.02
19890;BME280;10107;51.198;6.824;2022-09-20T18:06:17;-21696.94;;;14.48;65.01
19890;BME280;10107;51.198;6.824;2022-09-20T18:10:20;-21696.13;;;14.44;65.17
19890;BME280;10107;51.198;6.824;2022-09-20T18:14:28;-21695.09;;;14.40;65.31
19890;BME280;10107;51.198;6.824;2022-09-20T18:18:31;-21693.78;;;14.35;65.45
19890;BME280;10107;51.198;6.824;2022-09-20T18:22:33;-21691.41;;;14.26;66.32
19890;BME280;10107;51.198;6.824;2022-09-20T18:26:37;-21688.91;;;14.16;66.08
19890;BME280;10107;51.198;6.824;2022-09-20T18:30:41;-21685.72;;;14.04;67.09
19890;BME280;10107;51.198;6.824;2022-09-20T18:34:44;-21682.31;;;13.91;67.65
19890;BME280;10107;51.198;6.824;2022-09-20T18:38:50;-21679.41;;;13.79;67.75
19890;BME280;10107;51.198;6.824;2022-09-20T18:42:55;-21675.34;;;13.63;68.54
19890;BME280;10107;51.198;6.824;2022-09-20T18:47:00;-21672.69;;;13.53;69.27
19890;BME280;10107;51.198;6.824;2022-09-20T18:51:03;-21668.59;;;13.37;70.03
19890;BME280;10107;51.198;6.824;2022-09-20T18:55:06;-21664.38;;;13.21;71.61
19890;BME280;10107;51.198;6.824;2022-09-20T18:59:13;-21659.50;;;13.02;72.83
19890;BME280;10107;51.198;6.824;2022-09-20T19:03:18;-21653.81;;;12.80;74.43
19890;BME280;10107;51.198;6.824;2022-09-20T19:07:32;-21648.28;;;12.58;76.27
19890;BME280;10107;51.198;6.824;2022-09-20T19:11:40;-21642.59;;;12.36;77.85
19890;BME280;10107;51.198;6.824;2022-09-20T19:15:56;-21637.59;;;12.17;79.55
19890;BME280;10107;51.198;6.824;2022-09-20T19:20:07;-21634.28;;;12.04;80.90
19890;BME280;10107;51.198;6.824;2022-09-20T19:24:21;-21630.19;;;11.88;82.04
19890;BME280;10107;51.198;6.824;2022-09-20T19:28:29;-21626.59;;;11.74;82.75
19890;BME280;10107;51.198;6.824;2022-09-20T19:32:34;-21622.66;;;11.59;83.91
19890;BME280;10107;51.198;6.824;2022-09-20T19:36:44;-21620.00;;;11.48;85.35
19890;BME280;10107;51.198;6.824;2022-09-20T19:40:54;-21617.47;;;11.39;86.28
19890;BME280;10107;51.198;6.824;2022-09-20T19:45:12;-21614.97;;;11.29;87.06
19890;BME280;10107;51.198;6.824;2022-09-20T19:49:24;-21612.44;;;11.19;87.66
19890;BME280;10107;51.198;6.824;2022-09-20T19:53:29;-21610.34;;;11.11;88.76
19890;BME280;10107;51.198;6.824;2022-09-20T19:57:41;-21608.22;;;11.03;89.38
19890;BME280;10107;51.198;6.824;2022-09-20T20:01:44;-21606.38;;;10.96;89.90
19890;BME280;10107;51.198;6.824;2022-09-20T20:06:01;-21604.91;;;10.90;89.81
19890;BME280;10107;51.198;6.824;2022-09-20T20:10:14;-21603.84;;;10.86;90.70
19890;BME280;10107;51.198;6.824;2022-09-20T20:14:20;-21603.59;;;10.85;91.35
19890;BME280;10107;51.198;6.824;2022-09-20T20:18:30;-21603.19;;;10.83;91.65
19890;BME280;10107;51.198;6.824;2022-09-20T20:27:15;-21603.06;;;10.83;92.28
19890;BME280;10107;51.198;6.824;2022-09-20T20:31:16;-21603.72;;;10.85;92.82
19890;BME280;10107;51.198;6.824;2022-09-20T20:35:18;-21605.19;;;10.91;93.24
19890;BME280;10107;51.198;6.824;2022-09-20T20:39:24;-21606.09;;;10.95;93.68
19890;BME280;10107;51.198;6.824;2022-09-20T20:43:28;-21607.16;;;10.99;93.41
19890;BME280;10107;51.198;6.824;2022-09-20T20:47:32;-21608.22;;;11.03;93.89
19890;BME280;10107;51.198;6.824;2022-09-20T20:51:34;-21608.75;;;11.05;94.12
19890;BME280;10107;51.198;6.824;2022-09-20T20:55:38;-21609.28;;;11.07;94.25
19890;BME280;10107;51.198;6.824;2022-09-20T20:59:42;-21610.34;;;11.11;94.59
19890;BME280;10107;51.198;6.824;2022-09-20T21:03:46;-21611.66;;;11.16;94.81
19890;BME280;10107;51.198;6.824;2022-09-20T21:07:49;-21613.53;;;11.23;95.31
19890;BME280;10107;51.198;6.824;2022-09-20T21:11:53;-21614.84;;;11.28;94.82
19890;BME280;10107;51.198;6.824;2022-09-20T21:16:01;-21615.75;;;11.32;94.16
19890;BME280;10107;51.198;6.824;2022-09-20T21:20:04;-21616.03;;;11.33;94.07
19890;BME280;10107;51.198;6.824;2022-09-20T21:24:09;-21615.63;;;11.32;94.16
19890;BME280;10107;51.198;6.824;2022-09-20T21:28:14;-21614.19;;;11.26;93.85
19890;BME280;10107;51.198;6.824;2022-09-20T21:32:17;-21612.44;;;11.19;94.01
19890;BME280;10107;51.198;6.824;2022-09-20T21:36:25;-21611.00;;;11.14;94.41
19890;BME280;10107;51.198;6.824;2022-09-20T21:40:26;-21608.50;;;11.04;94.85
19890;BME280;10107;51.198;6.824;2022-09-20T21:44:30;-21606.63;;;10.97;95.62
19890;BME280;10107;51.198;6.824;2022-09-20T21:48:31;-21604.13;;;10.87;96.56
19890;BME280;10107;51.198;6.824;2022-09-20T21:52:35;-21600.69;;;10.74;96.23
19890;BME280;10107;51.198;6.824;2022-09-20T21:56:38;-21596.69;;;10.58;97.10
19890;BME280;10107;51.198;6.824;2022-09-20T22:00:42;-21593.91;;;10.47;97.22